Kasbeer, Illinois
Current Conditions -  °F | °C
As of 7:55 PM on Wednesday 22 Oct 2014 (Local Time) from KVYS Reporting Station
Clear Clear  
Wind Chill: 51°   Ceiling: Unl
Heat Index: 51°   Visibility: 10mi
Dew Point: 36°   Wind: 7mph
Humidity: 55%   Direction: 120°ESE
Pressure: 30.25"   Gusts: NA
Location:  41.5°N, 89.46°W
Report Text: KVYS 230055Z AUTO 12006KT 10SM CLR 11/02 A3025 RMK AO2 T01060020
Loading
Personal Weather Stations






























Interactive Weather Map
Tropical Storm Tracking
New forecast layout! Learn more

10-Day Weather Forecast

Advertisements
Track Severe Weather on mobile